sensor_id;sensor_type;location;lat;lon;timestamp;temperature;humidity
54192;DHT22;40101;53.002;6.488;2023-03-31T00:00:51;10.80;99.90
54192;DHT22;40101;53.002;6.488;2023-03-31T00:03:17;10.80;99.90
54192;DHT22;40101;53.002;6.488;2023-03-31T00:05:46;10.80;99.90
54192;DHT22;40101;53.002;6.488;2023-03-31T00:08:12;10.80;99.90
54192;DHT22;40101;53.002;6.488;2023-03-31T00:10:43;10.80;99.90
54192;DHT22;40101;53.002;6.488;2023-03-31T00:13:10;10.80;99.90
54192;DHT22;40101;53.002;6.488;2023-03-31T00:15:36;10.70;99.90
54192;DHT22;40101;53.002;6.488;2023-03-31T00:18:02;10.80;99.90
54192;DHT22;40101;53.002;6.488;2023-03-31T00:20:28;10.70;99.90
54192;DHT22;40101;53.002;6.488;2023-03-31T00:22:53;10.70;99.90
54192;DHT22;40101;53.002;6.488;2023-03-31T00:25:21;10.70;99.90
54192;DHT22;40101;53.002;6.488;2023-03-31T00:27:47;10.70;99.90
54192;DHT22;40101;53.002;6.488;2023-03-31T00:30:15;10.70;99.90
54192;DHT22;40101;53.002;6.488;2023-03-31T00:32:40;10.60;99.90
54192;DHT22;40101;53.002;6.488;2023-03-31T00:35:07;10.60;99.90
54192;DHT22;40101;53.002;6.488;2023-03-31T00:37:33;10.60;99.90
54192;DHT22;40101;53.002;6.488;2023-03-31T00:39:59;10.50;99.90
54192;DHT22;40101;53.002;6.488;2023-03-31T00:42:26;10.50;99.90
54192;DHT22;40101;53.002;6.488;2023-03-31T00:47:40;10.30;99.90
54192;DHT22;40101;53.002;6.488;2023-03-31T00:50:19;10.20;99.90
54192;DHT22;40101;53.002;6.488;2023-03-31T00:52:48;10.20;99.90
54192;DHT22;40101;53.002;6.488;2023-03-31T00:55:23;10.10;99.90
54192;DHT22;40101;53.002;6.488;2023-03-31T00:57:50;10.00;99.90
54192;DHT22;40101;53.002;6.488;2023-03-31T01:00:18;10.00;99.90
54192;DHT22;40101;53.002;6.488;2023-03-31T01:02:47;9.90;99.90
54192;DHT22;40101;53.002;6.488;2023-03-31T01:05:31;9.80;99.90
54192;DHT22;40101;53.002;6.488;2023-03-31T01:07:59;9.80;99.90
54192;DHT22;40101;53.002;6.488;2023-03-31T01:10:27;9.80;99.90
54192;DHT22;40101;53.002;6.488;2023-03-31T01:12:54;9.70;99.90
54192;DHT22;40101;53.002;6.488;2023-03-31T01:15:21;9.70;99.90
54192;DHT22;40101;53.002;6.488;2023-03-31T01:17:47;9.70;99.90
54192;DHT22;40101;53.002;6.488;2023-03-31T01:20:55;9.60;99.90
54192;DHT22;40101;53.002;6.488;2023-03-31T01:35:39;9.50;99.90
54192;DHT22;40101;53.002;6.488;2023-03-31T01:38:39;9.40;99.90
54192;DHT22;40101;53.002;6.488;2023-03-31T01:41:27;9.40;99.90
54192;DHT22;40101;53.002;6.488;2023-03-31T01:44:29;9.40;99.90
54192;DHT22;40101;53.002;6.488;2023-03-31T01:47:04;9.40;99.90
54192;DHT22;40101;53.002;6.488;2023-03-31T01:50:40;9.50;99.90
54192;DHT22;40101;53.002;6.488;2023-03-31T01:52:41;9.50;99.90
54192;DHT22;40101;53.002;6.488;2023-03-31T01:55:19;9.50;99.90
54192;DHT22;40101;53.002;6.488;2023-03-31T02:00:26;9.50;99.90
54192;DHT22;40101;53.002;6.488;2023-03-31T02:03:10;9.60;99.90
54192;DHT22;40101;53.002;6.488;2023-03-31T02:05:45;9.50;99.90
54192;DHT22;40101;53.002;6.488;2023-03-31T02:10:41;9.50;99.90
54192;DHT22;40101;53.002;6.488;2023-03-31T02:13:09;9.50;99.90
54192;DHT22;40101;53.002;6.488;2023-03-31T02:15:40;9.50;99.90
54192;DHT22;40101;53.002;6.488;2023-03-31T02:18:10;9.60;99.90
54192;DHT22;40101;53.002;6.488;2023-03-31T02:20:39;9.50;99.90
54192;DHT22;40101;53.002;6.488;2023-03-31T02:23:09;9.50;99.90
54192;DHT22;40101;53.002;6.488;2023-03-31T02:25:46;9.50;99.90
54192;DHT22;40101;53.002;6.488;2023-03-31T02:28:18;9.50;99.90
54192;DHT22;40101;53.002;6.488;2023-03-31T02:33:28;9.60;99.90
54192;DHT22;40101;53.002;6.488;2023-03-31T02:35:54;9.60;99.90
54192;DHT22;40101;53.002;6.488;2023-03-31T02:38:19;9.60;99.90
54192;DHT22;40101;53.002;6.488;2023-03-31T02:40:45;9.60;99.90
54192;DHT22;40101;53.002;6.488;2023-03-31T02:43:11;9.70;99.90
54192;DHT22;40101;53.002;6.488;2023-03-31T02:45:48;9.70;99.90
54192;DHT22;40101;53.002;6.488;2023-03-31T02:48:30;9.70;99.90
54192;DHT22;40101;53.002;6.488;2023-03-31T03:08:11;9.60;99.90
54192;DHT22;40101;53.002;6.488;2023-03-31T03:13:34;9.60;99.90
54192;DHT22;40101;53.002;6.488;2023-03-31T03:16:12;9.60;99.90
54192;DHT22;40101;53.002;6.488;2023-03-31T03:18:44;9.60;99.90
54192;DHT22;40101;53.002;6.488;2023-03-31T03:21:16;9.60;99.90
54192;DHT22;40101;53.002;6.488;2023-03-31T03:23:42;9.60;99.90
54192;DHT22;40101;53.002;6.488;2023-03-31T03:26:08;9.70;99.90
54192;DHT22;40101;53.002;6.488;2023-03-31T03:28:34;9.70;99.90
54192;DHT22;40101;53.002;6.488;2023-03-31T03:30:59;9.70;99.90
54192;DHT22;40101;53.002;6.488;2023-03-31T03:33:25;9.80;99.90
54192;DHT22;40101;53.002;6.488;2023-03-31T03:35:52;9.80;99.90
54192;DHT22;40101;53.002;6.488;2023-03-31T03:38:18;9.80;99.90
54192;DHT22;40101;53.002;6.488;2023-03-31T03:40:44;9.80;99.90
54192;DHT22;40101;53.002;6.488;2023-03-31T03:43:09;9.80;99.90
54192;DHT22;40101;53.002;6.488;2023-03-31T03:45:35;9.80;99.90
54192;DHT22;40101;53.002;6.488;2023-03-31T03:48:00;9.80;99.90
54192;DHT22;40101;53.002;6.488;2023-03-31T03:50:26;9.80;99.90
54192;DHT22;40101;53.002;6.488;2023-03-31T03:52:52;9.80;99.90
54192;DHT22;40101;53.002;6.488;2023-03-31T03:55:18;9.90;99.90
54192;DHT22;40101;53.002;6.488;2023-03-31T03:57:44;9.90;99.90
54192;DHT22;40101;53.002;6.488;2023-03-31T04:00:10;9.90;99.90
54192;DHT22;40101;53.002;6.488;2023-03-31T04:02:37;9.90;99.90
54192;DHT22;40101;53.002;6.488;2023-03-31T04:05:03;9.90;99.90
54192;DHT22;40101;53.002;6.488;2023-03-31T04:07:29;9.90;99.90
54192;DHT22;40101;53.002;6.488;2023-03-31T04:09:55;9.80;99.90
54192;DHT22;40101;53.002;6.488;2023-03-31T04:12:29;9.80;99.90
54192;DHT22;40101;53.002;6.488;2023-03-31T04:14:55;9.80;99.90
54192;DHT22;40101;53.002;6.488;2023-03-31T04:17:21;9.80;99.90
54192;DHT22;40101;53.002;6.488;2023-03-31T04:20:00;9.80;99.90
54192;DHT22;40101;53.002;6.488;2023-03-31T04:22:30;9.80;99.90
54192;DHT22;40101;53.002;6.488;2023-03-31T04:25:10;9.70;99.90
54192;DHT22;40101;53.002;6.488;2023-03-31T04:27:43;9.80;99.90
54192;DHT22;40101;53.002;6.488;2023-03-31T04:30:25;9.70;99.90
54192;DHT22;40101;53.002;6.488;2023-03-31T04:33:04;9.70;99.90
54192;DHT22;40101;53.002;6.488;2023-03-31T04:35:31;9.70;99.90
54192;DHT22;40101;53.002;6.488;2023-03-31T04:38:21;9.80;99.90
54192;DHT22;40101;53.002;6.488;2023-03-31T04:40:50;9.70;99.90
54192;DHT22;40101;53.002;6.488;2023-03-31T04:43:20;9.70;99.90
54192;DHT22;40101;53.002;6.488;2023-03-31T04:45:46;9.80;99.90
54192;DHT22;40101;53.002;6.488;2023-03-31T04:48:12;9.80;99.90
54192;DHT22;40101;53.002;6.488;2023-03-31T04:50:38;9.80;99.90
54192;DHT22;40101;53.002;6.488;2023-03-31T04:53:04;9.80;99.90
54192;DHT22;40101;53.002;6.488;2023-03-31T04:55:30;9.80;99.90
54192;DHT22;40101;53.002;6.488;2023-03-31T04:57:56;9.80;99.90
54192;DHT22;40101;53.002;6.488;2023-03-31T05:00:23;9.80;99.90
54192;DHT22;40101;53.002;6.488;2023-03-31T05:02:48;9.90;99.90
54192;DHT22;40101;53.002;6.488;2023-03-31T05:05:14;9.90;99.90
54192;DHT22;40101;53.002;6.488;2023-03-31T05:07:40;9.90;99.90
54192;DHT22;40101;53.002;6.488;2023-03-31T05:10:06;9.90;99.90
54192;DHT22;40101;53.002;6.488;2023-03-31T05:12:35;9.90;99.90
54192;DHT22;40101;53.002;6.488;2023-03-31T05:15:03;9.90;99.90
54192;DHT22;40101;53.002;6.488;2023-03-31T05:17:32;9.90;99.90
54192;DHT22;40101;53.002;6.488;2023-03-31T05:19:59;9.90;99.90
54192;DHT22;40101;53.002;6.488;2023-03-31T05:22:25;9.90;99.90
54192;DHT22;40101;53.002;6.488;2023-03-31T05:24:51;9.90;99.90
54192;DHT22;40101;53.002;6.488;2023-03-31T05:27:16;9.90;99.90
54192;DHT22;40101;53.002;6.488;2023-03-31T05:29:42;9.90;99.90
54192;DHT22;40101;53.002;6.488;2023-03-31T05:32:08;9.90;99.90
54192;DHT22;40101;53.002;6.488;2023-03-31T05:34:34;9.90;99.90
54192;DHT22;40101;53.002;6.488;2023-03-31T05:37:01;9.90;99.90
54192;DHT22;40101;53.002;6.488;2023-03-31T05:39:26;9.90;99.90
54192;DHT22;40101;53.002;6.488;2023-03-31T05:42:00;9.90;99.90
54192;DHT22;40101;53.002;6.488;2023-03-31T05:44:25;9.90;99.90
54192;DHT22;40101;53.002;6.488;2023-03-31T05:46:54;9.90;99.90
54192;DHT22;40101;53.002;6.488;2023-03-31T05:49:20;9.90;99.90
54192;DHT22;40101;53.002;6.488;2023-03-31T05:51:46;9.90;99.90
54192;DHT22;40101;53.002;6.488;2023-03-31T05:54:12;9.90;99.90
54192;DHT22;40101;53.002;6.488;2023-03-31T05:56:38;9.90;99.90
54192;DHT22;40101;53.002;6.488;2023-03-31T05:59:04;9.90;99.90
54192;DHT22;40101;53.002;6.488;2023-03-31T06:01:29;9.90;99.90
54192;DHT22;40101;53.002;6.488;2023-03-31T06:03:55;9.90;99.90
54192;DHT22;40101;53.002;6.488;2023-03-31T06:06:21;9.90;99.90
54192;DHT22;40101;53.002;6.488;2023-03-31T06:08:48;9.90;99.90
54192;DHT22;40101;53.002;6.488;2023-03-31T06:11:16;9.90;99.90
54192;DHT22;40101;53.002;6.488;2023-03-31T06:13:44;9.90;99.90
54192;DHT22;40101;53.002;6.488;2023-03-31T06:16:11;9.90;99.90
54192;DHT22;40101;53.002;6.488;2023-03-31T06:18:38;9.90;99.90
54192;DHT22;40101;53.002;6.488;2023-03-31T06:21:04;9.90;99.90
54192;DHT22;40101;53.002;6.488;2023-03-31T06:23:30;9.90;99.90
54192;DHT22;40101;53.002;6.488;2023-03-31T06:26:00;9.90;99.90
54192;DHT22;40101;53.002;6.488;2023-03-31T06:28:27;9.90;99.90
54192;DHT22;40101;53.002;6.488;2023-03-31T06:31:03;9.90;99.90
54192;DHT22;40101;53.002;6.488;2023-03-31T06:33:30;9.90;99.90
54192;DHT22;40101;53.002;6.488;2023-03-31T06:35:56;9.90;99.90
54192;DHT22;40101;53.002;6.488;2023-03-31T06:38:22;9.90;99.90
54192;DHT22;40101;53.002;6.488;2023-03-31T06:40:49;9.90;99.90
54192;DHT22;40101;53.002;6.488;2023-03-31T06:43:14;9.90;99.90
54192;DHT22;40101;53.002;6.488;2023-03-31T06:45:40;9.90;99.90
54192;DHT22;40101;53.002;6.488;2023-03-31T06:48:06;9.90;99.90
54192;DHT22;40101;53.002;6.488;2023-03-31T06:50:31;9.90;99.90
54192;DHT22;40101;53.002;6.488;2023-03-31T06:52:57;9.90;99.90
54192;DHT22;40101;53.002;6.488;2023-03-31T06:55:23;9.90;99.90
54192;DHT22;40101;53.002;6.488;2023-03-31T06:57:49;9.90;99.90
54192;DHT22;40101;53.002;6.488;2023-03-31T07:00:15;9.90;99.90
54192;DHT22;40101;53.002;6.488;2023-03-31T07:02:40;9.90;99.90
54192;DHT22;40101;53.002;6.488;2023-03-31T07:05:06;10.00;99.90
54192;DHT22;40101;53.002;6.488;2023-03-31T07:07:33;10.00;99.90
54192;DHT22;40101;53.002;6.488;2023-03-31T07:09:59;10.00;99.90
54192;DHT22;40101;53.002;6.488;2023-03-31T07:12:25;10.00;99.90
54192;DHT22;40101;53.002;6.488;2023-03-31T07:14:51;10.00;99.90
54192;DHT22;40101;53.002;6.488;2023-03-31T07:17:17;10.00;99.90
54192;DHT22;40101;53.002;6.488;2023-03-31T07:19:42;10.00;99.90
54192;DHT22;40101;53.002;6.488;2023-03-31T07:22:13;10.00;99.90
54192;DHT22;40101;53.002;6.488;2023-03-31T07:24:40;10.00;99.90
54192;DHT22;40101;53.002;6.488;2023-03-31T07:27:05;10.00;99.90
54192;DHT22;40101;53.002;6.488;2023-03-31T07:29:31;10.00;99.90
54192;DHT22;40101;53.002;6.488;2023-03-31T07:31:56;10.00;99.90
54192;DHT22;40101;53.002;6.488;2023-03-31T07:34:22;9.90;99.90
54192;DHT22;40101;53.002;6.488;2023-03-31T07:36:48;10.00;99.90
54192;DHT22;40101;53.002;6.488;2023-03-31T07:39:13;10.00;99.90
54192;DHT22;40101;53.002;6.488;2023-03-31T07:41:39;10.00;99.90
54192;DHT22;40101;53.002;6.488;2023-03-31T07:44:05;10.00;99.90
54192;DHT22;40101;53.002;6.488;2023-03-31T07:46:31;10.00;99.90
54192;DHT22;40101;53.002;6.488;2023-03-31T07:48:56;10.00;99.90
54192;DHT22;40101;53.002;6.488;2023-03-31T07:51:24;10.00;99.90
54192;DHT22;40101;53.002;6.488;2023-03-31T07:53:50;10.00;99.90
54192;DHT22;40101;53.002;6.488;2023-03-31T07:56:22;10.10;99.90
54192;DHT22;40101;53.002;6.488;2023-03-31T07:58:51;10.10;99.90
54192;DHT22;40101;53.002;6.488;2023-03-31T08:01:19;10.10;99.90
54192;DHT22;40101;53.002;6.488;2023-03-31T08:03:47;10.20;99.90
54192;DHT22;40101;53.002;6.488;2023-03-31T08:06:21;10.20;99.90
54192;DHT22;40101;53.002;6.488;2023-03-31T08:08:48;10.20;99.90
54192;DHT22;40101;53.002;6.488;2023-03-31T08:11:17;10.20;99.90
54192;DHT22;40101;53.002;6.488;2023-03-31T08:13:43;10.30;99.90
54192;DHT22;40101;53.002;6.488;2023-03-31T08:16:11;10.30;99.90
54192;DHT22;40101;53.002;6.488;2023-03-31T08:18:37;10.30;99.90
54192;DHT22;40101;53.002;6.488;2023-03-31T08:21:03;10.30;99.90
54192;DHT22;40101;53.002;6.488;2023-03-31T08:23:28;10.30;99.90
54192;DHT22;40101;53.002;6.488;2023-03-31T08:25:54;10.40;99.90
54192;DHT22;40101;53.002;6.488;2023-03-31T08:28:30;10.40;99.90
54192;DHT22;40101;53.002;6.488;2023-03-31T08:31:02;10.40;99.90
54192;DHT22;40101;53.002;6.488;2023-03-31T08:33:28;10.40;99.90
54192;DHT22;40101;53.002;6.488;2023-03-31T08:35:54;10.40;99.90
54192;DHT22;40101;53.002;6.488;2023-03-31T08:38:21;10.40;99.90
54192;DHT22;40101;53.002;6.488;2023-03-31T08:40:47;10.40;99.90
54192;DHT22;40101;53.002;6.488;2023-03-31T08:43:22;10.40;99.90
54192;DHT22;40101;53.002;6.488;2023-03-31T08:45:51;10.40;99.90
54192;DHT22;40101;53.002;6.488;2023-03-31T08:50:51;10.40;99.90
54192;DHT22;40101;53.002;6.488;2023-03-31T08:55:52;10.50;99.90
54192;DHT22;40101;53.002;6.488;2023-03-31T08:58:41;10.50;99.90
54192;DHT22;40101;53.002;6.488;2023-03-31T09:01:18;10.50;99.90
54192;DHT22;40101;53.002;6.488;2023-03-31T09:04:10;10.50;99.90
54192;DHT22;40101;53.002;6.488;2023-03-31T09:09:51;10.60;99.90
54192;DHT22;40101;53.002;6.488;2023-03-31T09:12:26;10.70;99.90
54192;DHT22;40101;53.002;6.488;2023-03-31T09:18:15;10.80;99.90
54192;DHT22;40101;53.002;6.488;2023-03-31T09:20:44;10.80;99.90
54192;DHT22;40101;53.002;6.488;2023-03-31T09:25:53;10.90;99.90
54192;DHT22;40101;53.002;6.488;2023-03-31T09:28:35;10.90;99.90
54192;DHT22;40101;53.002;6.488;2023-03-31T09:31:22;10.90;99.90
54192;DHT22;40101;53.002;6.488;2023-03-31T09:33:52;11.00;99.90
54192;DHT22;40101;53.002;6.488;2023-03-31T09:36:20;11.10;99.90
54192;DHT22;40101;53.002;6.488;2023-03-31T09:38:49;11.20;99.90
54192;DHT22;40101;53.002;6.488;2023-03-31T09:41:18;11.30;99.90
54192;DHT22;40101;53.002;6.488;2023-03-31T09:43:45;11.30;99.90
54192;DHT22;40101;53.002;6.488;2023-03-31T09:46:24;11.30;99.90
54192;DHT22;40101;53.002;6.488;2023-03-31T09:48:57;11.40;99.90
54192;DHT22;40101;53.002;6.488;2023-03-31T09:51:29;11.40;99.90
54192;DHT22;40101;53.002;6.488;2023-03-31T09:54:02;11.40;99.90
54192;DHT22;40101;53.002;6.488;2023-03-31T09:59:16;11.40;99.90
54192;DHT22;40101;53.002;6.488;2023-03-31T10:01:44;11.50;99.90
54192;DHT22;40101;53.002;6.488;2023-03-31T10:04:24;11.50;99.90
54192;DHT22;40101;53.002;6.488;2023-03-31T10:06:50;11.50;99.90
54192;DHT22;40101;53.002;6.488;2023-03-31T10:09:23;11.60;99.90
54192;DHT22;40101;53.002;6.488;2023-03-31T10:14:26;11.50;99.90
54192;DHT22;40101;53.002;6.488;2023-03-31T10:16:57;11.50;99.90
54192;DHT22;40101;53.002;6.488;2023-03-31T10:19:33;11.40;99.90
54192;DHT22;40101;53.002;6.488;2023-03-31T10:22:05;11.40;99.90
54192;DHT22;40101;53.002;6.488;2023-03-31T10:24:44;11.40;99.90
54192;DHT22;40101;53.002;6.488;2023-03-31T10:29:42;11.50;99.90
54192;DHT22;40101;53.002;6.488;2023-03-31T10:34:40;11.60;99.90
54192;DHT22;40101;53.002;6.488;2023-03-31T10:37:09;11.80;99.90
54192;DHT22;40101;53.002;6.488;2023-03-31T10:39:35;12.00;99.90
54192;DHT22;40101;53.002;6.488;2023-03-31T10:42:03;12.20;99.90
54192;DHT22;40101;53.002;6.488;2023-03-31T10:44:35;12.50;99.90
54192;DHT22;40101;53.002;6.488;2023-03-31T10:49:39;13.20;99.90
54192;DHT22;40101;53.002;6.488;2023-03-31T10:52:22;13.30;99.90
54192;DHT22;40101;53.002;6.488;2023-03-31T10:54:59;13.40;99.90
54192;DHT22;40101;53.002;6.488;2023-03-31T10:57:53;13.40;99.90
54192;DHT22;40101;53.002;6.488;2023-03-31T11:00:31;13.40;99.90
54192;DHT22;40101;53.002;6.488;2023-03-31T11:03:08;13.40;99.90
54192;DHT22;40101;53.002;6.488;2023-03-31T11:06:09;13.30;99.90
54192;DHT22;40101;53.002;6.488;2023-03-31T11:16:48;14.40;99.90
54192;DHT22;40101;53.002;6.488;2023-03-31T11:22:12;14.40;99.90
54192;DHT22;40101;53.002;6.488;2023-03-31T11:24:46;14.20;99.90
54192;DHT22;40101;53.002;6.488;2023-03-31T11:33:04;13.10;99.90
54192;DHT22;40101;53.002;6.488;2023-03-31T11:41:30;13.50;99.90
54192;DHT22;40101;53.002;6.488;2023-03-31T11:44:08;13.60;99.90
54192;DHT22;40101;53.002;6.488;2023-03-31T11:49:34;13.40;99.90
54192;DHT22;40101;53.002;6.488;2023-03-31T11:52:28;13.40;99.90
54192;DHT22;40101;53.002;6.488;2023-03-31T11:54:59;13.40;99.90
54192;DHT22;40101;53.002;6.488;2023-03-31T12:02:56;13.40;99.90
54192;DHT22;40101;53.002;6.488;2023-03-31T12:05:25;13.40;99.90
54192;DHT22;40101;53.002;6.488;2023-03-31T12:08:12;13.40;99.90
54192;DHT22;40101;53.002;6.488;2023-03-31T12:10:50;13.40;99.90
54192;DHT22;40101;53.002;6.488;2023-03-31T12:16:14;13.30;99.90
54192;DHT22;40101;53.002;6.488;2023-03-31T12:21:29;13.30;99.90
54192;DHT22;40101;53.002;6.488;2023-03-31T12:23:56;13.30;99.90
54192;DHT22;40101;53.002;6.488;2023-03-31T12:29:33;13.40;99.90
54192;DHT22;40101;53.002;6.488;2023-03-31T12:32:06;13.60;99.90
54192;DHT22;40101;53.002;6.488;2023-03-31T12:34:34;13.80;99.90
54192;DHT22;40101;53.002;6.488;2023-03-31T12:46:01;13.80;99.90
54192;DHT22;40101;53.002;6.488;2023-03-31T12:51:42;13.70;99.90
54192;DHT22;40101;53.002;6.488;2023-03-31T12:59:39;14.00;99.90
54192;DHT22;40101;53.002;6.488;2023-03-31T13:04:38;13.90;99.90
54192;DHT22;40101;53.002;6.488;2023-03-31T13:07:12;13.70;99.90
54192;DHT22;40101;53.002;6.488;2023-03-31T13:10:24;13.60;99.90
54192;DHT22;40101;53.002;6.488;2023-03-31T13:13:04;13.50;99.90
54192;DHT22;40101;53.002;6.488;2023-03-31T13:15:31;13.50;99.90
54192;DHT22;40101;53.002;6.488;2023-03-31T13:18:02;13.40;99.90
54192;DHT22;40101;53.002;6.488;2023-03-31T13:20:35;13.30;99.90
54192;DHT22;40101;53.002;6.488;2023-03-31T13:25:47;13.40;99.90
54192;DHT22;40101;53.002;6.488;2023-03-31T13:28:16;13.40;99.90
54192;DHT22;40101;53.002;6.488;2023-03-31T13:33:26;13.50;99.90
54192;DHT22;40101;53.002;6.488;2023-03-31T13:52:10;12.50;99.90
54192;DHT22;40101;53.002;6.488;2023-03-31T14:00:13;12.40;99.90
54192;DHT22;40101;53.002;6.488;2023-03-31T14:03:04;12.30;99.90
54192;DHT22;40101;53.002;6.488;2023-03-31T14:06:01;12.20;99.90
54192;DHT22;40101;53.002;6.488;2023-03-31T14:08:44;12.20;99.90
54192;DHT22;40101;53.002;6.488;2023-03-31T14:11:22;12.20;99.90
54192;DHT22;40101;53.002;6.488;2023-03-31T14:14:21;12.30;99.90
54192;DHT22;40101;53.002;6.488;2023-03-31T14:16:54;12.60;99.90
54192;DHT22;40101;53.002;6.488;2023-03-31T14:24:54;13.00;99.90
54192;DHT22;40101;53.002;6.488;2023-03-31T14:30:29;13.20;99.90
54192;DHT22;40101;53.002;6.488;2023-03-31T14:33:26;13.20;99.90
54192;DHT22;40101;53.002;6.488;2023-03-31T14:38:23;13.20;99.90
54192;DHT22;40101;53.002;6.488;2023-03-31T14:40:53;13.20;99.90
54192;DHT22;40101;53.002;6.488;2023-03-31T14:43:24;13.20;99.90
54192;DHT22;40101;53.002;6.488;2023-03-31T14:46:02;13.10;99.90
54192;DHT22;40101;53.002;6.488;2023-03-31T14:48:34;13.00;99.90
54192;DHT22;40101;53.002;6.488;2023-03-31T14:51:02;13.00;99.90
54192;DHT22;40101;53.002;6.488;2023-03-31T14:53:28;13.00;99.90
54192;DHT22;40101;53.002;6.488;2023-03-31T14:56:04;13.00;99.90
54192;DHT22;40101;53.002;6.488;2023-03-31T14:58:34;12.90;99.90
54192;DHT22;40101;53.002;6.488;2023-03-31T15:01:06;13.00;99.90
54192;DHT22;40101;53.002;6.488;2023-03-31T15:03:35;13.00;99.90
54192;DHT22;40101;53.002;6.488;2023-03-31T15:06:04;13.00;99.90
54192;DHT22;40101;53.002;6.488;2023-03-31T15:08:31;13.10;99.90
54192;DHT22;40101;53.002;6.488;2023-03-31T15:10:59;13.10;99.90
54192;DHT22;40101;53.002;6.488;2023-03-31T15:13:33;13.10;99.90
54192;DHT22;40101;53.002;6.488;2023-03-31T15:16:00;13.10;99.90
54192;DHT22;40101;53.002;6.488;2023-03-31T15:18:43;13.10;99.90
54192;DHT22;40101;53.002;6.488;2023-03-31T15:21:23;13.00;99.90
54192;DHT22;40101;53.002;6.488;2023-03-31T15:23:56;13.00;99.90
54192;DHT22;40101;53.002;6.488;2023-03-31T15:26:30;13.00;99.90
54192;DHT22;40101;53.002;6.488;2023-03-31T15:29:03;13.00;99.90
54192;DHT22;40101;53.002;6.488;2023-03-31T15:31:30;12.90;99.90
54192;DHT22;40101;53.002;6.488;2023-03-31T15:33:56;12.90;99.90
54192;DHT22;40101;53.002;6.488;2023-03-31T15:36:31;12.90;99.90
54192;DHT22;40101;53.002;6.488;2023-03-31T15:38:57;12.90;99.90
54192;DHT22;40101;53.002;6.488;2023-03-31T15:41:29;12.90;99.90
54192;DHT22;40101;53.002;6.488;2023-03-31T15:44:04;12.90;99.90
54192;DHT22;40101;53.002;6.488;2023-03-31T15:49:02;12.90;99.90
54192;DHT22;40101;53.002;6.488;2023-03-31T15:51:35;12.90;99.90
54192;DHT22;40101;53.002;6.488;2023-03-31T15:54:01;12.90;99.90
54192;DHT22;40101;53.002;6.488;2023-03-31T15:56:33;12.90;99.90
54192;DHT22;40101;53.002;6.488;2023-03-31T15:59:01;12.90;99.90
54192;DHT22;40101;53.002;6.488;2023-03-31T16:01:32;12.90;99.90
54192;DHT22;40101;53.002;6.488;2023-03-31T16:04:01;12.80;99.90
54192;DHT22;40101;53.002;6.488;2023-03-31T16:09:15;12.80;99.90
54192;DHT22;40101;53.002;6.488;2023-03-31T16:11:57;12.80;99.90
54192;DHT22;40101;53.002;6.488;2023-03-31T16:14:35;12.80;99.90
54192;DHT22;40101;53.002;6.488;2023-03-31T16:17:12;12.80;99.90
54192;DHT22;40101;53.002;6.488;2023-03-31T16:19:47;12.80;99.90
54192;DHT22;40101;53.002;6.488;2023-03-31T16:22:17;12.80;99.90
54192;DHT22;40101;53.002;6.488;2023-03-31T16:24:44;12.70;99.90
54192;DHT22;40101;53.002;6.488;2023-03-31T16:27:10;12.60;99.90
54192;DHT22;40101;53.002;6.488;2023-03-31T16:29:36;12.50;99.90
54192;DHT22;40101;53.002;6.488;2023-03-31T16:32:55;12.30;99.90
54192;DHT22;40101;53.002;6.488;2023-03-31T16:35:59;12.10;99.90
54192;DHT22;40101;53.002;6.488;2023-03-31T16:38:37;12.00;99.90
54192;DHT22;40101;53.002;6.488;2023-03-31T16:44:53;11.90;99.90
54192;DHT22;40101;53.002;6.488;2023-03-31T16:47:36;11.80;99.90
54192;DHT22;40101;53.002;6.488;2023-03-31T16:50:03;11.90;99.90
54192;DHT22;40101;53.002;6.488;2023-03-31T16:52:34;11.80;99.90
54192;DHT22;40101;53.002;6.488;2023-03-31T16:55:36;11.80;99.90
54192;DHT22;40101;53.002;6.488;2023-03-31T16:58:08;11.80;99.90
54192;DHT22;40101;53.002;6.488;2023-03-31T17:00:35;11.80;99.90
54192;DHT22;40101;53.002;6.488;2023-03-31T17:03:05;11.80;99.90
54192;DHT22;40101;53.002;6.488;2023-03-31T17:05:51;11.80;99.90
54192;DHT22;40101;53.002;6.488;2023-03-31T17:08:25;11.80;99.90
54192;DHT22;40101;53.002;6.488;2023-03-31T17:11:09;11.70;99.90
54192;DHT22;40101;53.002;6.488;2023-03-31T17:13:37;11.70;99.90
54192;DHT22;40101;53.002;6.488;2023-03-31T17:16:04;11.70;99.90
54192;DHT22;40101;53.002;6.488;2023-03-31T17:18:30;11.70;99.90
54192;DHT22;40101;53.002;6.488;2023-03-31T17:21:04;11.70;99.90
54192;DHT22;40101;53.002;6.488;2023-03-31T17:23:30;11.70;99.90
54192;DHT22;40101;53.002;6.488;2023-03-31T17:25:57;11.60;99.90
54192;DHT22;40101;53.002;6.488;2023-03-31T17:28:22;11.60;99.90
54192;DHT22;40101;53.002;6.488;2023-03-31T17:30:48;11.60;99.90
54192;DHT22;40101;53.002;6.488;2023-03-31T17:33:15;11.50;99.90
54192;DHT22;40101;53.002;6.488;2023-03-31T17:35:41;11.50;99.90
54192;DHT22;40101;53.002;6.488;2023-03-31T17:38:08;11.50;99.90
54192;DHT22;40101;53.002;6.488;2023-03-31T17:40:35;11.50;99.90
54192;DHT22;40101;53.002;6.488;2023-03-31T17:43:01;11.50;99.90
54192;DHT22;40101;53.002;6.488;2023-03-31T17:45:29;11.50;99.90
54192;DHT22;40101;53.002;6.488;2023-03-31T17:47:57;11.50;99.90
54192;DHT22;40101;53.002;6.488;2023-03-31T17:50:23;11.50;99.90
54192;DHT22;40101;53.002;6.488;2023-03-31T17:52:48;11.50;99.90
54192;DHT22;40101;53.002;6.488;2023-03-31T17:55:15;11.40;99.90
54192;DHT22;40101;53.002;6.488;2023-03-31T17:57:41;11.40;99.90
54192;DHT22;40101;53.002;6.488;2023-03-31T18:00:08;11.50;99.90
54192;DHT22;40101;53.002;6.488;2023-03-31T18:02:37;11.40;99.90
54192;DHT22;40101;53.002;6.488;2023-03-31T18:05:04;11.40;99.90
54192;DHT22;40101;53.002;6.488;2023-03-31T18:07:31;11.40;99.90
54192;DHT22;40101;53.002;6.488;2023-03-31T18:09:58;11.40;99.90
54192;DHT22;40101;53.002;6.488;2023-03-31T18:12:24;11.40;99.90
54192;DHT22;40101;53.002;6.488;2023-03-31T18:14:50;11.40;99.90
54192;DHT22;40101;53.002;6.488;2023-03-31T18:17:16;11.40;99.90
54192;DHT22;40101;53.002;6.488;2023-03-31T18:19:43;11.30;99.90
54192;DHT22;40101;53.002;6.488;2023-03-31T18:22:09;11.30;99.90
54192;DHT22;40101;53.002;6.488;2023-03-31T18:24:35;11.30;99.90
54192;DHT22;40101;53.002;6.488;2023-03-31T18:27:03;11.30;99.90
54192;DHT22;40101;53.002;6.488;2023-03-31T18:29:29;11.30;99.90
54192;DHT22;40101;53.002;6.488;2023-03-31T18:31:55;11.30;99.90
54192;DHT22;40101;53.002;6.488;2023-03-31T18:34:21;11.30;99.90
54192;DHT22;40101;53.002;6.488;2023-03-31T18:36:47;11.30;99.90
54192;DHT22;40101;53.002;6.488;2023-03-31T18:39:13;11.30;99.90
54192;DHT22;40101;53.002;6.488;2023-03-31T18:41:43;11.30;99.90
54192;DHT22;40101;53.002;6.488;2023-03-31T18:44:09;11.30;99.90
54192;DHT22;40101;53.002;6.488;2023-03-31T18:46:36;11.30;99.90
54192;DHT22;40101;53.002;6.488;2023-03-31T18:49:01;11.30;99.90
54192;DHT22;40101;53.002;6.488;2023-03-31T18:51:27;11.20;99.90
54192;DHT22;40101;53.002;6.488;2023-03-31T18:53:53;11.20;99.90